createdAt,value
2023-04-18T00:00:43.640Z,12.30
2023-04-18T00:03:10.534Z,12.30
2023-04-18T00:05:37.992Z,12.30
2023-04-18T00:08:05.589Z,12.20
2023-04-18T00:10:33.129Z,12.20
2023-04-18T00:13:00.495Z,12.20
2023-04-18T00:15:29.245Z,12.20
2023-04-18T00:18:00.897Z,12.20
2023-04-18T00:20:27.942Z,12.10
2023-04-18T00:22:55.075Z,12.10
2023-04-18T00:25:21.951Z,12.10
2023-04-18T00:27:48.849Z,12.00
2023-04-18T00:30:15.780Z,12.00
2023-04-18T00:32:42.709Z,12.00
2023-04-18T00:35:09.789Z,12.00
2023-04-18T00:37:37.316Z,12.00
2023-04-18T00:40:05.614Z,11.90
2023-04-18T00:42:33.939Z,11.90
2023-04-18T00:45:01.355Z,11.80
2023-04-18T00:47:28.288Z,11.80
2023-04-18T00:49:55.459Z,11.80
2023-04-18T00:52:22.450Z,11.80
2023-04-18T00:54:49.679Z,11.70
2023-04-18T00:57:16.797Z,11.70
2023-04-18T00:59:43.816Z,11.70
2023-04-18T01:02:11.120Z,11.60
2023-04-18T01:04:38.646Z,11.60
2023-04-18T01:07:09.371Z,11.60
2023-04-18T01:09:37.087Z,11.60
2023-04-18T01:12:04.269Z,11.50
2023-04-18T01:14:31.105Z,11.50
2023-04-18T01:16:58.804Z,11.40
2023-04-18T01:19:25.774Z,11.40
2023-04-18T01:21:53.506Z,11.40
2023-04-18T01:24:20.450Z,11.30
2023-04-18T01:26:48.342Z,11.30
2023-04-18T01:29:15.667Z,11.20
2023-04-18T01:31:42.550Z,11.20
2023-04-18T01:34:09.560Z,11.10
2023-04-18T01:36:37.656Z,11.10
2023-04-18T01:39:04.807Z,11.10
2023-04-18T01:41:32.813Z,11.00
2023-04-18T01:44:00.488Z,11.00
2023-04-18T01:46:27.962Z,11.00
2023-04-18T01:48:55.418Z,11.00
2023-04-18T01:51:22.753Z,10.90
2023-04-18T01:53:50.153Z,10.90
2023-04-18T01:56:17.077Z,10.90
2023-04-18T01:58:43.906Z,10.80
2023-04-18T02:01:12.825Z,10.80
2023-04-18T02:03:40.035Z,10.80
2023-04-18T02:06:07.754Z,10.80
2023-04-18T02:08:36.244Z,10.70
2023-04-18T02:11:05.528Z,10.70
2023-04-18T02:13:32.732Z,10.70
2023-04-18T02:15:59.695Z,10.70
2023-04-18T02:18:27.472Z,10.60
2023-04-18T02:20:54.537Z,10.60
2023-04-18T02:23:22.215Z,10.50
2023-04-18T02:25:49.113Z,10.50
2023-04-18T02:28:17.611Z,10.50
2023-04-18T02:30:44.447Z,10.40
2023-04-18T02:33:11.403Z,10.40
2023-04-18T02:35:38.673Z,10.40
2023-04-18T02:38:05.810Z,10.40
2023-04-18T02:40:32.705Z,10.30
2023-04-18T02:42:59.794Z,10.30
2023-04-18T02:45:26.767Z,10.30
2023-04-18T02:47:56.655Z,10.30
2023-04-18T02:50:24.850Z,10.20
2023-04-18T02:52:53.458Z,10.20
2023-04-18T02:55:22.365Z,10.20
2023-04-18T02:57:49.178Z,10.20
2023-04-18T03:00:45.359Z,10.20
2023-04-18T03:03:44.774Z,10.10
2023-04-18T03:06:31.878Z,10.10
2023-04-18T03:09:01.028Z,10.00
2023-04-18T03:11:28.614Z,10.00
2023-04-18T03:13:56.109Z,9.90
2023-04-18T03:16:25.794Z,9.90
2023-04-18T03:18:53.516Z,9.90
2023-04-18T03:21:22.225Z,9.90
2023-04-18T03:23:50.125Z,9.90
2023-04-18T03:26:17.093Z,9.90
2023-04-18T03:28:45.717Z,9.80
2023-04-18T03:31:12.984Z,9.80
2023-04-18T03:33:44.181Z,9.80
2023-04-18T03:36:12.305Z,9.80
2023-04-18T03:38:40.649Z,9.80
2023-04-18T03:41:08.306Z,9.80
2023-04-18T03:43:37.340Z,9.80
2023-04-18T03:46:04.518Z,9.70
2023-04-18T03:48:35.854Z,9.70
2023-04-18T03:51:06.669Z,9.70
2023-04-18T03:53:33.657Z,9.70
2023-04-18T03:56:01.072Z,9.60
2023-04-18T03:58:42.561Z,9.60
2023-04-18T04:01:09.588Z,9.60
2023-04-18T04:03:37.535Z,9.60
2023-04-18T04:06:06.513Z,9.60
2023-04-18T04:08:34.409Z,9.60
2023-04-18T04:11:01.976Z,9.50
2023-04-18T04:13:29.408Z,9.50
2023-04-18T04:15:57.272Z,9.50
2023-04-18T04:18:31.237Z,9.50
2023-04-18T04:21:00.585Z,9.50
2023-04-18T04:23:38.159Z,9.40
2023-04-18T04:26:05.134Z,9.40
2023-04-18T04:28:46.753Z,9.40
2023-04-18T04:31:16.883Z,9.40
2023-04-18T04:33:44.200Z,9.30
2023-04-18T04:36:18.911Z,9.30
2023-04-18T04:38:47.227Z,9.20
2023-04-18T04:41:14.048Z,9.20
2023-04-18T04:43:41.275Z,9.20
2023-04-18T04:46:09.284Z,9.20
2023-04-18T04:48:36.154Z,9.20
2023-04-18T04:51:04.162Z,9.20
2023-04-18T04:53:31.105Z,9.20
2023-04-18T04:55:59.635Z,9.20
2023-04-18T04:58:27.093Z,9.20
2023-04-18T05:01:16.966Z,9.20
2023-04-18T05:03:44.647Z,9.20
2023-04-18T05:06:12.108Z,9.20
2023-04-18T05:08:38.886Z,9.20
2023-04-18T05:11:05.923Z,9.30
2023-04-18T05:13:32.742Z,9.30
2023-04-18T05:15:59.604Z,9.30
2023-04-18T05:18:26.460Z,9.30
2023-04-18T05:20:53.453Z,9.30
2023-04-18T05:23:20.263Z,9.30
2023-04-18T05:25:47.123Z,9.30
2023-04-18T05:28:14.288Z,9.20
2023-04-18T05:30:41.671Z,9.30
2023-04-18T05:33:08.712Z,9.30
2023-04-18T05:35:35.566Z,9.30
2023-04-18T05:38:02.354Z,9.30
2023-04-18T05:40:30.015Z,9.40
2023-04-18T05:42:56.837Z,9.40
2023-04-18T05:45:23.675Z,9.40
2023-04-18T05:47:51.214Z,9.40
2023-04-18T05:50:17.995Z,9.40
2023-04-18T05:52:44.903Z,9.40
2023-04-18T05:55:12.239Z,9.40
2023-04-18T05:57:40.544Z,9.50
2023-04-18T06:00:11.486Z,9.40
2023-04-18T06:02:41.074Z,9.50
2023-04-18T06:05:08.767Z,9.50
2023-04-18T06:07:36.329Z,9.60
2023-04-18T06:10:03.713Z,9.50
2023-04-18T06:12:30.701Z,9.60
2023-04-18T06:14:57.532Z,9.60
2023-04-18T06:17:24.615Z,9.60
2023-04-18T06:19:52.393Z,9.60
2023-04-18T06:22:19.480Z,9.60
2023-04-18T06:24:46.526Z,9.60
2023-04-18T06:27:27.996Z,9.70
2023-04-18T06:29:57.364Z,9.70
2023-04-18T06:32:24.347Z,9.80
2023-04-18T06:34:52.974Z,9.90
2023-04-18T06:37:20.710Z,9.90
2023-04-18T06:39:47.580Z,10.00
2023-04-18T06:42:14.711Z,10.00
2023-04-18T06:44:48.162Z,10.00
2023-04-18T06:47:15.158Z,10.00
2023-04-18T06:49:41.973Z,10.00
2023-04-18T06:52:08.756Z,10.00
2023-04-18T06:54:35.615Z,10.00
2023-04-18T06:57:03.759Z,10.10
2023-04-18T06:59:30.780Z,10.10
2023-04-18T07:01:57.665Z,10.10
2023-04-18T07:04:24.710Z,10.20
2023-04-18T07:06:52.192Z,10.20
2023-04-18T07:09:19.288Z,10.30
2023-04-18T07:11:46.141Z,10.30
2023-04-18T07:14:13.210Z,10.30
2023-04-18T07:16:40.774Z,10.30
2023-04-18T07:19:07.731Z,10.30
2023-04-18T07:21:34.575Z,10.30
2023-04-18T07:24:01.397Z,10.30
2023-04-18T07:26:28.288Z,10.40
2023-04-18T07:28:55.122Z,10.40
2023-04-18T07:31:22.176Z,10.40
2023-04-18T07:33:49.144Z,10.40
2023-04-18T07:36:15.966Z,10.30
2023-04-18T07:38:44.303Z,10.40
2023-04-18T07:41:11.322Z,10.40
2023-04-18T07:43:39.055Z,10.50
2023-04-18T07:46:06.811Z,10.60
2023-04-18T07:48:33.782Z,10.60
2023-04-18T07:51:00.651Z,10.70
2023-04-18T07:53:27.493Z,10.70
2023-04-18T07:55:54.871Z,10.80
2023-04-18T07:58:21.774Z,10.80
2023-04-18T08:00:48.686Z,10.90
2023-04-18T08:03:16.266Z,10.90
2023-04-18T08:05:46.548Z,11.00
2023-04-18T08:08:13.681Z,11.10
2023-04-18T08:10:40.724Z,11.30
2023-04-18T08:13:08.291Z,11.50
2023-04-18T08:15:35.657Z,11.60
2023-04-18T08:18:02.581Z,11.70
2023-04-18T08:20:29.428Z,11.80
2023-04-18T08:25:25.974Z,11.80
2023-04-18T08:27:52.886Z,11.90
2023-04-18T08:30:19.928Z,11.90
2023-04-18T08:32:46.887Z,12.10
2023-04-18T08:35:13.880Z,12.30
2023-04-18T08:37:40.722Z,12.50
2023-04-18T08:40:07.925Z,12.50
2023-04-18T08:42:38.348Z,12.70
2023-04-18T08:45:09.577Z,12.70
2023-04-18T08:47:36.440Z,12.70
2023-04-18T08:50:03.398Z,12.70
2023-04-18T08:52:31.962Z,12.70
2023-04-18T08:54:58.735Z,12.80
2023-04-18T08:57:28.435Z,12.90
2023-04-18T08:59:55.605Z,13.00
2023-04-18T09:02:35.223Z,13.20
2023-04-18T09:05:14.326Z,13.40
2023-04-18T09:07:42.635Z,13.60
2023-04-18T09:10:10.157Z,13.80
2023-04-18T09:12:50.445Z,13.90
2023-04-18T09:15:23.592Z,14.10
2023-04-18T09:17:56.578Z,14.00
2023-04-18T09:20:35.787Z,13.80
2023-04-18T09:23:04.817Z,13.70
2023-04-18T09:25:40.083Z,13.70
2023-04-18T09:28:31.975Z,13.70
2023-04-18T09:31:04.368Z,13.70
2023-04-18T09:33:36.893Z,13.70
2023-04-18T09:36:21.524Z,13.70
2023-04-18T09:38:52.085Z,13.70
2023-04-18T09:41:21.499Z,13.80
2023-04-18T09:43:48.974Z,13.80
2023-04-18T09:46:17.740Z,13.70
2023-04-18T09:48:44.862Z,13.70
2023-04-18T09:51:15.319Z,13.60
2023-04-18T09:53:50.318Z,13.60
2023-04-18T09:56:27.420Z,13.60
2023-04-18T09:59:03.650Z,13.60
2023-04-18T10:01:31.238Z,13.60
2023-04-18T10:04:04.196Z,13.60
2023-04-18T10:06:34.499Z,13.70
2023-04-18T10:09:04.462Z,13.70
2023-04-18T10:11:34.828Z,13.90
2023-04-18T10:14:09.664Z,14.20
2023-04-18T10:16:38.399Z,14.20
2023-04-18T10:19:25.872Z,14.20
2023-04-18T10:21:53.810Z,14.20
2023-04-18T10:24:45.917Z,14.20
2023-04-18T10:27:12.793Z,14.10
2023-04-18T10:29:54.758Z,14.00
2023-04-18T10:32:24.383Z,13.90
2023-04-18T10:34:53.657Z,13.90
2023-04-18T10:37:20.648Z,13.90
2023-04-18T10:40:00.245Z,14.00
2023-04-18T10:42:51.949Z,14.00
2023-04-18T10:45:27.244Z,14.20
2023-04-18T10:48:25.921Z,14.30
2023-04-18T10:51:19.075Z,14.30
2023-04-18T10:53:54.320Z,14.20
2023-04-18T10:56:21.764Z,14.10
2023-04-18T10:58:52.935Z,14.10
2023-04-18T11:01:28.640Z,14.10
2023-04-18T11:03:58.890Z,14.20
2023-04-18T11:06:28.307Z,14.20
2023-04-18T11:09:14.484Z,14.20
2023-04-18T11:11:42.087Z,14.40
2023-04-18T11:14:09.279Z,14.40
2023-04-18T11:16:36.953Z,14.40
2023-04-18T11:19:26.388Z,14.40
2023-04-18T11:21:53.213Z,14.40
2023-04-18T11:24:24.303Z,14.40
2023-04-18T11:26:55.782Z,14.50
2023-04-18T11:29:23.092Z,14.80
2023-04-18T11:31:52.175Z,15.20
2023-04-18T11:34:19.008Z,15.30
2023-04-18T11:36:51.330Z,15.30
2023-04-18T11:39:18.778Z,15.30
2023-04-18T11:41:50.451Z,15.30
2023-04-18T11:44:27.059Z,15.20
2023-04-18T11:46:54.313Z,15.00
2023-04-18T11:49:32.003Z,14.90
2023-04-18T11:52:01.349Z,14.90
2023-04-18T11:54:42.670Z,14.90
2023-04-18T11:57:32.142Z,14.80
2023-04-18T12:00:00.816Z,14.80
2023-04-18T12:02:41.660Z,14.80
2023-04-18T12:05:10.406Z,14.80
2023-04-18T12:07:40.193Z,14.80
2023-04-18T12:10:10.034Z,14.80
2023-04-18T12:12:37.061Z,14.80
2023-04-18T12:15:08.183Z,14.80
2023-04-18T12:17:37.701Z,14.80
2023-04-18T12:20:07.515Z,14.80
2023-04-18T12:22:44.397Z,14.80
2023-04-18T12:25:27.168Z,14.80
2023-04-18T12:27:59.868Z,14.80
2023-04-18T12:30:29.381Z,14.80
2023-04-18T12:33:02.019Z,14.80
2023-04-18T12:35:30.848Z,14.80
2023-04-18T12:38:00.114Z,14.70
2023-04-18T12:40:27.724Z,14.70
2023-04-18T12:42:55.739Z,14.70
2023-04-18T12:45:23.676Z,14.60
2023-04-18T12:47:51.854Z,14.60
2023-04-18T12:50:23.525Z,14.60
2023-04-18T12:52:54.261Z,14.60
2023-04-18T12:55:23.422Z,14.60
2023-04-18T12:57:55.044Z,14.60
2023-04-18T13:00:24.476Z,14.50
2023-04-18T13:02:52.943Z,14.50
2023-04-18T13:05:22.743Z,14.50
2023-04-18T13:07:58.704Z,14.50
2023-04-18T13:10:29.976Z,14.50
2023-04-18T13:12:57.637Z,14.50
2023-04-18T13:15:24.965Z,14.50
2023-04-18T13:17:52.268Z,14.60
2023-04-18T13:20:19.680Z,14.70
2023-04-18T13:22:46.940Z,14.80
2023-04-18T19:18:47.110Z,15.40
2023-04-18T19:21:14.062Z,15.30
2023-04-18T19:23:42.103Z,15.30
2023-04-18T19:26:09.899Z,15.20
2023-04-18T19:28:37.275Z,15.20
2023-04-18T19:31:04.301Z,15.20
2023-04-18T19:33:31.345Z,15.20
2023-04-18T19:35:58.661Z,15.20
2023-04-18T19:38:25.660Z,15.20
2023-04-18T19:40:52.539Z,15.10
2023-04-18T19:43:19.606Z,15.10
2023-04-18T19:45:46.551Z,15.10
2023-04-18T19:48:13.675Z,15.10
2023-04-18T19:50:41.110Z,15.10
2023-04-18T19:53:08.496Z,15.00
2023-04-18T19:55:35.629Z,15.00
2023-04-18T19:58:02.685Z,14.90
2023-04-18T20:00:30.100Z,14.90
2023-04-18T20:02:58.855Z,14.90
2023-04-18T20:05:26.281Z,14.80
2023-04-18T20:07:53.158Z,14.80
2023-04-18T20:10:23.998Z,14.70
2023-04-18T20:12:51.193Z,14.70
2023-04-18T20:15:18.198Z,14.60
2023-04-18T20:17:45.293Z,14.50
2023-04-18T20:20:13.055Z,14.50
2023-04-18T20:22:40.435Z,14.40
2023-04-18T20:25:07.494Z,14.40
2023-04-18T20:27:34.445Z,14.40
2023-04-18T20:30:01.319Z,14.30
2023-04-18T20:32:28.315Z,14.30
2023-04-18T20:34:55.267Z,14.30
2023-04-18T20:37:22.358Z,14.20
2023-04-18T20:39:49.174Z,14.20
2023-04-18T20:42:16.296Z,14.10
2023-04-18T20:44:44.148Z,14.10
2023-04-18T20:47:11.992Z,14.00
2023-04-18T20:49:40.223Z,14.00
2023-04-18T20:52:11.883Z,14.00
2023-04-18T20:54:38.734Z,13.90
2023-04-18T20:57:05.739Z,13.90
2023-04-18T20:59:32.594Z,13.90
2023-04-18T21:01:59.651Z,13.80
2023-04-18T21:04:27.187Z,13.80
2023-04-18T21:06:54.257Z,13.80
2023-04-18T21:09:21.196Z,13.80
2023-04-18T21:11:48.063Z,13.70
2023-04-18T21:14:17.030Z,13.70
2023-04-18T21:16:44.159Z,13.60
2023-04-18T21:19:11.104Z,13.60
2023-04-18T21:21:38.105Z,13.60
2023-04-18T21:24:05.922Z,13.60
2023-04-18T21:26:32.735Z,13.50
2023-04-18T21:29:01.772Z,13.50
2023-04-18T21:31:30.651Z,13.40
2023-04-18T21:33:59.520Z,13.40
2023-04-18T21:36:27.907Z,13.40
2023-04-18T21:38:56.784Z,13.30
2023-04-18T21:41:24.486Z,13.30
2023-04-18T21:43:51.921Z,13.30
2023-04-18T21:46:19.357Z,13.30
2023-04-18T21:48:47.699Z,13.20
2023-04-18T21:51:16.330Z,13.20
2023-04-18T21:53:43.374Z,13.10
2023-04-18T21:56:10.968Z,13.10
2023-04-18T21:58:37.853Z,13.10
2023-04-18T22:01:04.895Z,13.10
2023-04-18T22:03:34.246Z,13.00
2023-04-18T22:06:01.675Z,13.00
2023-04-18T22:08:29.533Z,13.00
2023-04-18T22:10:58.978Z,13.00
2023-04-18T22:13:32.858Z,13.00
2023-04-18T22:16:03.545Z,13.00
2023-04-18T22:18:34.074Z,12.90
2023-04-18T22:21:02.327Z,12.90
2023-04-18T22:23:29.830Z,12.80
2023-04-18T22:25:56.797Z,12.80
2023-04-18T22:28:23.677Z,12.80
2023-04-18T22:30:51.114Z,12.80
2023-04-18T22:33:18.485Z,12.70
2023-04-18T22:35:47.687Z,12.70
2023-04-18T22:38:14.483Z,12.70
2023-04-18T22:40:41.296Z,12.60
2023-04-18T22:43:08.221Z,12.60
2023-04-18T22:45:35.296Z,12.60
2023-04-18T22:48:02.243Z,12.50
2023-04-18T22:50:30.192Z,12.50
2023-04-18T22:52:57.449Z,12.50
2023-04-18T22:55:24.437Z,12.40
2023-04-18T22:57:51.193Z,12.40
2023-04-18T23:00:18.374Z,12.40
2023-04-18T23:02:45.416Z,12.40
2023-04-18T23:05:12.379Z,12.40
2023-04-18T23:07:39.269Z,12.40
2023-04-18T23:10:07.005Z,12.40
2023-04-18T23:12:34.049Z,12.30
2023-04-18T23:15:01.039Z,12.30
2023-04-18T23:17:27.840Z,12.30
2023-04-18T23:19:54.763Z,12.30
2023-04-18T23:22:24.056Z,12.30
2023-04-18T23:24:51.364Z,12.30
2023-04-18T23:27:19.494Z,12.30
2023-04-18T23:29:49.485Z,12.30
2023-04-18T23:32:16.438Z,12.20
2023-04-18T23:34:44.804Z,12.20
2023-04-18T23:37:11.700Z,12.20
2023-04-18T23:39:38.562Z,12.20
2023-04-18T23:42:05.480Z,12.20
2023-04-18T23:44:32.515Z,12.20
2023-04-18T23:46:59.380Z,12.10
2023-04-18T23:49:28.144Z,12.10
2023-04-18T23:51:54.934Z,12.10
2023-04-18T23:54:21.784Z,12.10
2023-04-18T23:56:48.927Z,12.10
2023-04-18T23:59:15.852Z,12.10
